Gassoway, Louisiana
Current Conditions -  °F | °C
As of 6:53 AM on Tuesday 21 Oct 2014 (Local Time) from KTVR Reporting Station
Clear Clear  
Wind Chill:   Ceiling: Unl
Heat Index:   Visibility: 10mi
Dew Point:   Wind: 3mph
Humidity: 93%   Direction: 180°S
Pressure: 30.08"   Gusts: NA
Location:  32.8408°N, 91.231°W
Report Text: KTVR 211153Z AUTO 18003KT 10SM CLR 09/08 A3008 RMK AO2 SLP192 T00940083 10106 20083 51013 $
Loading
Personal Weather Stations






























Interactive Weather Map
Tropical Storm Tracking
New forecast layout! Learn more

10-Day Weather Forecast

Advertisements
Track Severe Weather on mobile